Impacts TAF Board
For situational awareness. Not to be used for flight planning purposes.
IDs:

KMYR - Myrtle Beach Intl, SC, US

Issued at 1743 UTC 21 May 2022
Updated at 2203 UTC 21 May 2022
Potential Impact None Slight Moderate High
Time2156Z 21/23Z 22/00Z 22/01Z 22/02Z 22/03Z 22/04Z 22/05Z 22/06Z 22/07Z 22/08Z 22/09Z 22/10Z 22/11Z>>
Type OBS PRVL PRVL PRVL PRVL PRVL PRVL PRVL PRVL PRVL PRVL PRVL PRVL PRVL
VIS 10 >6 >6 >6 >6 >6 >6 >6 >6 >6 >6 >6 >6 >6
CIG -- 100 200 200 200 200 200 200 200 200 200 200 200 80
Cover CLR BKN BKN BKN BKN BKN BKN BKN BKN BKN BKN BKN BKN BKN
FltCat VFR VFR VFR VFR VFR VFR VFR VFR VFR VFR VFR VFR VFR VFR
WX -- VCSH -- -- -- -- -- -- -- -- -- -- -- --
WDir 180 170 200 200 200 200 200 200 200 200 200 200 200 240
WSpd 10 11 7 7 7 7 7 7 7 7 7 7 7 4
WGst -- 18 -- -- -- -- -- -- -- -- -- -- -- --
WSHgt -- -- -- -- -- -- -- -- -- -- -- -- -- --
WSDir -- -- -- -- -- -- -- -- -- -- -- -- -- --
WSSpd -- -- -- -- -- -- -- -- -- -- -- -- -- --
R18/36
XWnd -2 -0 -4 -4 -4 -4 -4 -4 -4 -4 -4 -4 -4 -4
XGst -- -1 -- -- -- -- -- -- -- -- -- -- -- --
Raw TAF
KMYR 211743Z 2118/2218 17011G18KT P6SM VCSH BKN100
  FM220000 20007KT P6SM BKN200
  FM221100 24004KT P6SM BKN080
  FM221400 22010KT P6SM SCT050 BKN150


Raw METAR
KMYR 212156Z 18010KT 10SM CLR 26/23 A3019 RMK AO2 SLP221 T02560228
KMYR 212056Z 19013KT 10SM SCT120 26/22 A3018 RMK AO2 LTG DSNT W SLP219 T02610222 56005
KMYR 211956Z 19011KT 10SM CLR 27/22 A3018 RMK AO2 LTG DSNT W SLP219 T02670217

METAR Board
Radar Display
Forecast Discussion
For situational awareness. Not to be used for flight planning purposes.